createdAt,value
2018-08-03T00:00:39.136Z,16.57
2018-08-03T00:03:07.034Z,17.62
2018-08-03T00:05:34.957Z,19.25
2018-08-03T00:08:02.754Z,18.60
2018-08-03T00:10:30.675Z,19.42
2018-08-03T00:12:58.579Z,19.52
2018-08-03T00:15:26.523Z,19.77
2018-08-03T00:17:54.415Z,18.27
2018-08-03T00:20:22.268Z,18.52
2018-08-03T00:22:50.208Z,18.85
2018-08-03T00:25:18.143Z,17.37
2018-08-03T00:27:46.072Z,18.40
2018-08-03T00:30:13.945Z,18.92
2018-08-03T00:32:41.830Z,19.05
2018-08-03T00:35:09.715Z,19.92
2018-08-03T00:37:37.613Z,20.37
2018-08-03T00:40:05.574Z,19.87
2018-08-03T00:42:33.534Z,21.00
2018-08-03T00:45:01.470Z,20.65
2018-08-03T00:47:29.302Z,21.15
2018-08-03T00:49:57.197Z,21.07
2018-08-03T00:52:25.090Z,21.55
2018-08-03T00:54:52.940Z,21.65
2018-08-03T00:57:20.789Z,22.45
2018-08-03T00:59:48.682Z,23.70
2018-08-03T01:02:16.466Z,23.02
2018-08-03T01:04:44.262Z,22.65
2018-08-03T01:07:12.192Z,21.77
2018-08-03T01:09:40.024Z,22.32
2018-08-03T01:12:07.851Z,21.40
2018-08-03T01:14:35.663Z,22.22
2018-08-03T01:17:03.496Z,22.62
2018-08-03T01:19:31.247Z,22.93
2018-08-03T01:21:59.141Z,24.30
2018-08-03T01:24:27.056Z,24.30
2018-08-03T01:26:54.859Z,23.18
2018-08-03T01:29:22.663Z,22.00
2018-08-03T01:31:50.490Z,21.77
2018-08-03T01:34:18.278Z,22.75
2018-08-03T01:36:46.103Z,22.13
2018-08-03T01:39:13.961Z,21.40
2018-08-03T01:41:41.883Z,21.37
2018-08-03T01:44:09.759Z,22.77
2018-08-03T01:46:37.555Z,23.15
2018-08-03T01:49:05.361Z,21.85
2018-08-03T01:51:33.172Z,22.87
2018-08-03T01:54:01.007Z,22.85
2018-08-03T01:56:28.822Z,24.37
2018-08-03T01:58:56.685Z,23.67
2018-08-03T02:01:24.508Z,24.60
2018-08-03T02:03:52.638Z,24.23
2018-08-03T02:06:20.503Z,25.97
2018-08-03T02:08:48.353Z,25.37
2018-08-03T02:11:16.259Z,25.55
2018-08-03T02:13:44.068Z,25.30
2018-08-03T02:16:11.901Z,25.80
2018-08-03T02:18:39.760Z,23.62
2018-08-03T02:21:07.568Z,23.60
2018-08-03T02:23:35.443Z,22.48
2018-08-03T02:26:03.278Z,23.40
2018-08-03T02:28:31.042Z,24.98
2018-08-03T02:30:58.959Z,24.72
2018-08-03T02:33:26.955Z,25.40
2018-08-03T02:35:54.931Z,25.70
2018-08-03T02:38:22.772Z,25.82
2018-08-03T02:40:50.668Z,24.65
2018-08-03T02:43:18.637Z,24.67
2018-08-03T02:45:46.576Z,24.67
2018-08-03T02:48:14.556Z,26.17
2018-08-03T02:50:42.403Z,26.60
2018-08-03T02:53:10.269Z,26.42
2018-08-03T02:55:38.222Z,28.38
2018-08-03T02:58:06.126Z,28.45
2018-08-03T03:00:34.101Z,28.00
2018-08-03T03:03:01.994Z,27.32
2018-08-03T03:05:29.873Z,28.15
2018-08-03T03:07:57.717Z,27.45
2018-08-03T03:10:25.611Z,27.98
2018-08-03T03:12:53.523Z,29.02
2018-08-03T03:15:21.441Z,34.38
2018-08-03T03:17:49.310Z,31.02
2018-08-03T03:20:17.214Z,29.23
2018-08-03T03:22:45.067Z,27.75
2018-08-03T03:25:13.036Z,29.32
2018-08-03T03:27:40.935Z,29.87
2018-08-03T03:30:09.072Z,27.25
2018-08-03T03:32:37.010Z,29.70
2018-08-03T03:35:04.891Z,28.15
2018-08-03T03:37:32.815Z,29.40
2018-08-03T03:40:00.735Z,29.55
2018-08-03T03:42:28.623Z,30.23
2018-08-03T03:44:56.495Z,30.65
2018-08-03T03:47:24.365Z,29.52
2018-08-03T03:49:52.298Z,31.27
2018-08-03T03:52:20.129Z,31.25
2018-08-03T03:54:48.083Z,29.90
2018-08-03T03:57:15.908Z,30.55
2018-08-03T03:59:43.761Z,29.20
2018-08-03T04:02:11.610Z,28.25
2018-08-03T04:04:39.446Z,30.20
2018-08-03T04:07:07.261Z,29.87
2018-08-03T04:09:35.094Z,28.87
2018-08-03T04:12:03.028Z,28.85
2018-08-03T04:14:30.918Z,29.67
2018-08-03T04:16:58.738Z,29.10
2018-08-03T04:19:26.533Z,28.75
2018-08-03T04:21:54.348Z,29.87
2018-08-03T04:24:22.169Z,28.15
2018-08-03T04:26:50.032Z,27.50
2018-08-03T04:29:17.895Z,26.42
2018-08-03T04:31:45.730Z,26.02
2018-08-03T04:34:13.555Z,25.95
2018-08-03T04:36:41.403Z,23.22
2018-08-03T04:39:09.239Z,23.02
2018-08-03T04:41:37.130Z,21.60
2018-08-03T04:44:04.910Z,18.27
2018-08-03T04:46:32.841Z,20.52
2018-08-03T04:49:00.640Z,20.10
2018-08-03T04:51:28.565Z,17.80
2018-08-03T04:53:56.503Z,18.00
2018-08-03T04:56:24.396Z,16.82
2018-08-03T04:58:52.882Z,15.28
2018-08-03T05:01:20.723Z,17.35
2018-08-03T05:03:48.511Z,15.38
2018-08-03T05:06:16.325Z,14.73
2018-08-03T05:08:44.262Z,14.58
2018-08-03T05:11:12.110Z,14.28
2018-08-03T05:13:39.920Z,13.30
2018-08-03T05:16:07.731Z,12.98
2018-08-03T05:18:35.548Z,12.45
2018-08-03T05:21:03.332Z,12.00
2018-08-03T05:23:31.134Z,12.75
2018-08-03T05:25:58.982Z,13.05
2018-08-03T05:28:26.884Z,12.13
2018-08-03T05:30:54.780Z,13.05
2018-08-03T05:33:22.514Z,12.90
2018-08-03T05:35:50.394Z,12.10
2018-08-03T05:38:18.221Z,11.48
2018-08-03T05:40:46.002Z,11.57
2018-08-03T05:43:13.846Z,11.73
2018-08-03T05:45:41.638Z,12.13
2018-08-03T05:48:14.875Z,12.40
2018-08-03T05:50:42.747Z,12.37
2018-08-03T05:53:10.675Z,12.25
2018-08-03T05:55:38.562Z,12.40
2018-08-03T05:58:06.516Z,12.75
2018-08-03T06:00:34.363Z,11.85
2018-08-03T06:03:02.167Z,12.80
2018-08-03T06:05:30.114Z,11.80
2018-08-03T06:07:58.026Z,12.40
2018-08-03T06:10:25.895Z,12.85
2018-08-03T06:12:53.814Z,12.25
2018-08-03T06:15:21.603Z,12.68
2018-08-03T06:17:49.482Z,11.97
2018-08-03T06:20:17.327Z,11.78
2018-08-03T06:22:45.156Z,12.00
2018-08-03T06:25:13.016Z,13.22
2018-08-03T06:27:40.918Z,12.63
2018-08-03T06:30:10.361Z,12.88
2018-08-03T06:32:38.494Z,12.70
2018-08-03T06:35:06.674Z,11.90
2018-08-03T06:37:34.792Z,13.15
2018-08-03T06:40:02.792Z,12.80
2018-08-03T06:42:30.609Z,12.90
2018-08-03T06:44:58.493Z,12.58
2018-08-03T06:47:26.265Z,13.40
2018-08-03T06:49:54.142Z,12.18
2018-08-03T06:52:22.093Z,11.80
2018-08-03T06:54:50.191Z,12.05
2018-08-03T06:57:18.017Z,12.28
2018-08-03T06:59:45.979Z,11.28
2018-08-03T07:02:13.851Z,12.23
2018-08-03T07:04:41.748Z,11.65
2018-08-03T07:07:09.685Z,11.78
2018-08-03T07:09:37.677Z,12.18
2018-08-03T07:12:05.576Z,11.12
2018-08-03T07:14:33.511Z,11.95
2018-08-03T07:17:01.375Z,11.50
2018-08-03T07:19:29.324Z,11.55
2018-08-03T07:21:57.281Z,11.68
2018-08-03T07:24:25.235Z,12.23
2018-08-03T07:26:53.162Z,12.55
2018-08-03T07:29:21.043Z,11.60
2018-08-03T07:31:49.075Z,12.18
2018-08-03T07:34:17.035Z,13.48
2018-08-03T07:36:45.018Z,12.53
2018-08-03T07:39:12.979Z,12.55
2018-08-03T07:41:48.696Z,12.03
2018-08-03T07:44:43.980Z,12.98
2018-08-03T07:47:11.876Z,12.47
2018-08-03T07:49:39.779Z,12.15
2018-08-03T07:52:08.131Z,13.43
2018-08-03T07:57:42.396Z,14.75
2018-08-03T08:00:35.542Z,14.68
2018-08-03T08:03:03.411Z,14.83
2018-08-03T08:05:31.333Z,14.75
2018-08-03T08:07:59.273Z,14.78
2018-08-03T08:13:34.452Z,11.00
2018-08-03T08:16:02.457Z,11.70
2018-08-03T08:18:30.366Z,11.12
2018-08-03T08:20:58.335Z,12.20
2018-08-03T08:23:26.314Z,12.85
2018-08-03T08:26:04.081Z,11.93
2018-08-03T08:28:31.967Z,12.00
2018-08-03T08:30:59.871Z,11.60
2018-08-03T08:33:27.822Z,12.95
2018-08-03T08:36:07.914Z,13.50
2018-08-03T08:38:35.820Z,13.55
2018-08-03T08:41:03.737Z,14.55
2018-08-03T08:43:31.757Z,15.05
2018-08-03T08:45:59.686Z,13.78
2018-08-03T08:48:32.632Z,13.40
2018-08-03T08:51:00.522Z,13.22
2018-08-03T08:53:28.396Z,12.95
2018-08-03T08:55:56.239Z,13.15
2018-08-03T08:58:24.137Z,13.62
2018-08-03T09:00:52.141Z,13.60
2018-08-03T09:03:20.150Z,13.78
2018-08-03T09:05:48.046Z,13.13
2018-08-03T09:08:15.915Z,13.68
2018-08-03T09:10:43.837Z,13.83
2018-08-03T09:13:11.737Z,15.50
2018-08-03T09:15:39.569Z,14.30
2018-08-03T09:18:07.344Z,15.10
2018-08-03T09:20:35.278Z,13.70
2018-08-03T09:23:09.465Z,13.93
2018-08-03T09:25:37.290Z,14.95
2018-08-03T09:28:05.586Z,14.15
2018-08-03T09:30:41.431Z,13.55
2018-08-03T09:33:09.269Z,13.85
2018-08-03T09:35:37.218Z,14.68
2018-08-03T09:38:05.202Z,13.93
2018-08-03T09:40:43.639Z,14.55
2018-08-03T09:43:12.002Z,15.10
2018-08-03T09:45:39.761Z,14.40
2018-08-03T09:48:07.520Z,13.50
2018-08-03T09:50:36.387Z,14.68
2018-08-03T09:53:04.235Z,14.55
2018-08-03T09:55:32.090Z,15.35
2018-08-03T09:57:59.957Z,15.68
2018-08-03T10:00:33.463Z,14.60
2018-08-03T10:03:01.238Z,15.03
2018-08-03T10:05:29.007Z,14.33
2018-08-03T10:07:56.903Z,14.25
2018-08-03T10:10:24.665Z,14.33
2018-08-03T10:12:52.589Z,15.63
2018-08-03T10:15:21.531Z,14.45
2018-08-03T10:17:49.499Z,14.70
2018-08-03T10:20:17.511Z,14.43
2018-08-03T10:22:45.335Z,14.87
2018-08-03T10:25:13.118Z,14.63
2018-08-03T10:27:41.009Z,14.73
2018-08-03T10:30:08.879Z,14.00
2018-08-03T10:32:36.723Z,13.95
2018-08-03T10:35:05.376Z,14.23
2018-08-03T10:37:33.182Z,14.63
2018-08-03T10:40:00.977Z,14.65
2018-08-03T10:42:28.819Z,13.20
2018-08-03T10:44:56.637Z,13.75
2018-08-03T10:47:24.513Z,13.43
2018-08-03T10:49:52.520Z,13.95
2018-08-03T10:52:20.683Z,13.48
2018-08-03T10:54:48.760Z,12.93
2018-08-03T10:57:16.537Z,12.68
2018-08-03T10:59:44.406Z,12.50
2018-08-03T11:02:12.254Z,12.88
2018-08-03T11:04:40.277Z,12.43
2018-08-03T11:07:08.235Z,12.18
2018-08-03T11:09:36.059Z,12.60
2018-08-03T11:12:04.222Z,12.00
2018-08-03T11:14:32.051Z,12.05
2018-08-03T11:17:00.139Z,11.50
2018-08-03T11:19:27.872Z,11.55
2018-08-03T11:21:55.645Z,12.28
2018-08-03T11:24:23.429Z,11.55
2018-08-03T11:26:51.190Z,11.03
2018-08-03T11:29:19.003Z,11.45
2018-08-03T11:31:46.887Z,10.95
2018-08-03T11:34:14.754Z,12.65
2018-08-03T11:36:42.616Z,12.03
2018-08-03T11:39:11.246Z,11.97
2018-08-03T11:41:39.063Z,12.45
2018-08-03T11:44:07.195Z,10.90
2018-08-03T11:46:35.085Z,9.90
2018-08-03T11:49:02.957Z,10.53
2018-08-03T11:51:30.870Z,10.60
2018-08-03T11:53:58.702Z,10.95
2018-08-03T11:56:26.583Z,10.63
2018-08-03T11:58:54.360Z,9.90
2018-08-03T12:01:22.150Z,10.88
2018-08-03T12:03:49.936Z,10.43
2018-08-03T12:06:17.717Z,11.03
2018-08-03T12:08:45.580Z,10.45
2018-08-03T12:11:13.409Z,10.53
2018-08-03T12:13:41.302Z,10.95
2018-08-03T12:16:09.095Z,10.03
2018-08-03T12:18:36.880Z,11.15
2018-08-03T12:21:04.679Z,10.45
2018-08-03T12:23:32.514Z,10.30
2018-08-03T12:26:00.257Z,10.60
2018-08-03T12:28:36.622Z,10.95
2018-08-03T12:31:04.430Z,10.10
2018-08-03T12:33:32.199Z,10.18
2018-08-03T12:36:00.092Z,10.60
2018-08-03T12:38:27.891Z,10.60
2018-08-03T12:40:55.690Z,10.10
2018-08-03T12:43:23.556Z,10.45
2018-08-03T12:45:51.390Z,10.60
2018-08-03T12:48:19.137Z,10.30
2018-08-03T12:50:46.980Z,10.43
2018-08-03T12:53:14.791Z,9.58
2018-08-03T12:55:42.578Z,10.10
2018-08-03T12:58:10.452Z,10.28
2018-08-03T13:00:38.295Z,10.78
2018-08-03T13:03:06.124Z,9.88
2018-08-03T13:05:33.939Z,10.38
2018-08-03T13:08:02.079Z,10.43
2018-08-03T13:10:29.730Z,10.25
2018-08-03T13:12:57.611Z,10.65
2018-08-03T13:15:25.392Z,10.23
2018-08-03T13:17:53.178Z,10.58
2018-08-03T13:20:20.976Z,10.82
2018-08-03T13:22:48.781Z,10.20
2018-08-03T13:25:16.611Z,10.05
2018-08-03T13:27:44.467Z,10.10
2018-08-03T13:30:12.215Z,10.58
2018-08-03T13:32:39.947Z,10.28
2018-08-03T13:35:07.696Z,10.05
2018-08-03T13:37:35.398Z,10.32
2018-08-03T13:40:03.132Z,10.38
2018-08-03T13:42:31.045Z,10.25
2018-08-03T13:44:58.894Z,10.38
2018-08-03T13:47:26.706Z,10.80
2018-08-03T13:49:54.516Z,10.60
2018-08-03T13:52:22.320Z,10.50
2018-08-03T13:54:50.181Z,10.88
2018-08-03T13:57:18.010Z,10.20
2018-08-03T13:59:45.943Z,10.05
2018-08-03T14:02:23.411Z,10.53
2018-08-03T14:04:51.423Z,10.25
2018-08-03T14:07:19.240Z,10.50
2018-08-03T14:09:47.117Z,10.18
2018-08-03T14:12:15.090Z,10.35
2018-08-03T14:14:42.866Z,10.32
2018-08-03T14:17:11.171Z,10.80
2018-08-03T14:19:39.700Z,10.45
2018-08-03T14:25:08.772Z,10.38
2018-08-03T14:27:36.601Z,10.40
2018-08-03T14:30:06.192Z,10.32
2018-08-03T14:32:34.042Z,10.23
2018-08-03T14:35:01.824Z,10.05
2018-08-03T14:37:29.605Z,10.28
2018-08-03T14:39:57.367Z,10.13
2018-08-03T14:42:25.232Z,10.05
2018-08-03T14:44:53.037Z,10.35
2018-08-03T14:47:20.908Z,10.08
2018-08-03T14:49:48.761Z,10.20
2018-08-03T14:52:16.582Z,9.53
2018-08-03T14:54:44.444Z,9.83
2018-08-03T14:57:12.225Z,10.15
2018-08-03T14:59:40.083Z,10.08
2018-08-03T15:02:07.919Z,10.03
2018-08-03T15:04:35.708Z,9.83
2018-08-03T15:07:03.630Z,10.18
2018-08-03T15:09:31.542Z,10.15
2018-08-03T15:11:59.326Z,9.68
2018-08-03T15:14:27.155Z,9.68
2018-08-03T15:16:55.027Z,9.53
2018-08-03T15:19:22.894Z,9.48
2018-08-03T15:21:50.732Z,9.90
2018-08-03T15:24:18.616Z,10.13
2018-08-03T15:26:46.494Z,9.55
2018-08-03T15:29:14.335Z,9.60
2018-08-03T15:31:42.143Z,10.10
2018-08-03T15:34:09.954Z,10.40
2018-08-03T15:36:37.756Z,9.85
2018-08-03T15:39:08.623Z,9.83
2018-08-03T15:41:36.443Z,9.78
2018-08-03T15:44:04.232Z,10.05
2018-08-03T15:46:32.045Z,10.23
2018-08-03T15:48:59.883Z,10.58
2018-08-03T15:51:27.695Z,9.93
2018-08-03T15:53:55.587Z,9.53
2018-08-03T15:56:23.447Z,10.10
2018-08-03T15:58:51.271Z,9.70
2018-08-03T16:01:19.193Z,9.90
2018-08-03T16:03:47.065Z,10.30
2018-08-03T16:06:14.902Z,9.98
2018-08-03T16:08:42.734Z,9.78
2018-08-03T16:11:10.606Z,9.98
2018-08-03T16:13:38.557Z,9.68
2018-08-03T16:16:06.415Z,10.08
2018-08-03T16:18:34.299Z,9.73
2018-08-03T16:21:02.102Z,9.70
2018-08-03T16:23:29.987Z,10.18
2018-08-03T16:25:57.907Z,10.08
2018-08-03T16:28:25.798Z,9.25
2018-08-03T16:30:53.677Z,9.93
2018-08-03T16:33:21.545Z,10.05
2018-08-03T16:35:49.446Z,9.68
2018-08-03T16:38:17.315Z,9.65
2018-08-03T16:40:45.161Z,10.15
2018-08-03T16:43:13.018Z,10.08
2018-08-03T16:45:40.798Z,10.23
2018-08-03T16:48:08.551Z,10.00
2018-08-03T16:50:40.620Z,9.73
2018-08-03T16:53:08.556Z,9.95
2018-08-03T16:55:36.428Z,10.45
2018-08-03T16:58:04.323Z,9.93
2018-08-03T17:00:32.161Z,9.73
2018-08-03T17:03:00.083Z,9.90
2018-08-03T17:05:27.953Z,9.80
2018-08-03T17:07:55.834Z,9.73
2018-08-03T17:10:23.768Z,9.68
2018-08-03T17:12:51.633Z,9.70
2018-08-03T17:15:19.491Z,10.13
2018-08-03T17:17:47.406Z,10.43
2018-08-03T17:20:15.290Z,10.13
2018-08-03T17:22:43.169Z,9.78
2018-08-03T17:25:11.037Z,9.73
2018-08-03T17:27:38.962Z,9.58
2018-08-03T17:30:06.832Z,10.13
2018-08-03T17:32:34.744Z,9.98
2018-08-03T17:35:02.631Z,9.88
2018-08-03T17:37:30.495Z,9.55
2018-08-03T17:39:58.387Z,9.63
2018-08-03T17:42:26.289Z,9.25
2018-08-03T17:44:54.206Z,9.45
2018-08-03T17:47:22.099Z,9.65
2018-08-03T17:49:50.027Z,9.68
2018-08-03T17:52:17.894Z,10.58
2018-08-03T17:54:45.721Z,9.95
2018-08-03T17:57:13.554Z,9.50
2018-08-03T17:59:41.383Z,10.20
2018-08-03T18:02:09.232Z,10.08
2018-08-03T18:04:37.021Z,9.48
2018-08-03T18:07:04.822Z,10.23
2018-08-03T18:09:32.582Z,9.68
2018-08-03T18:12:00.440Z,10.53
2018-08-03T18:14:28.259Z,10.03
2018-08-03T18:16:56.120Z,9.60
2018-08-03T18:19:23.970Z,9.98
2018-08-03T18:21:51.859Z,9.50
2018-08-03T18:24:19.637Z,9.53
2018-08-03T18:26:47.559Z,9.95
2018-08-03T18:29:15.480Z,9.95
2018-08-03T18:31:43.211Z,9.55
2018-08-03T18:34:11.057Z,10.23
2018-08-03T18:36:38.863Z,9.98
2018-08-03T18:39:08.418Z,9.50
2018-08-03T18:41:36.479Z,10.30
2018-08-03T18:44:04.247Z,10.08
2018-08-03T18:46:32.070Z,10.23
2018-08-03T18:48:59.847Z,9.03
2018-08-03T18:51:27.709Z,9.80
2018-08-03T18:53:55.480Z,10.23
2018-08-03T18:56:23.319Z,10.48
2018-08-03T18:58:51.153Z,9.73
2018-08-03T19:01:18.944Z,9.38
2018-08-03T19:03:46.753Z,9.55
2018-08-03T19:06:14.523Z,9.50
2018-08-03T19:08:42.374Z,9.73
2018-08-03T19:11:10.195Z,9.93
2018-08-03T19:13:38.052Z,10.08
2018-08-03T19:16:05.943Z,10.63
2018-08-03T19:18:34.178Z,10.45
2018-08-03T19:21:01.973Z,9.48
2018-08-03T19:23:29.761Z,10.03
2018-08-03T19:25:57.628Z,10.32
2018-08-03T19:28:25.471Z,10.58
2018-08-03T19:30:53.337Z,9.75
2018-08-03T19:33:21.217Z,10.13
2018-08-03T19:35:49.066Z,10.75
2018-08-03T19:38:16.960Z,10.30
2018-08-03T19:40:44.847Z,9.88
2018-08-03T19:43:12.680Z,10.13
2018-08-03T19:45:40.580Z,10.45
2018-08-03T19:48:08.434Z,9.95
2018-08-03T19:50:36.192Z,10.30
2018-08-03T19:53:04.129Z,9.80
2018-08-03T19:55:32.022Z,9.60
2018-08-03T19:58:03.804Z,10.03
2018-08-03T20:00:31.652Z,10.32
2018-08-03T20:02:59.535Z,10.25
2018-08-03T20:05:27.465Z,9.43
2018-08-03T20:07:55.263Z,9.05
2018-08-03T20:10:34.990Z,9.73
2018-08-03T20:13:02.835Z,9.53
2018-08-03T20:15:30.728Z,9.35
2018-08-03T20:18:01.327Z,8.98
2018-08-03T20:20:29.272Z,9.05
2018-08-03T20:22:57.083Z,9.18
2018-08-03T20:25:24.946Z,9.05
2018-08-03T20:27:52.773Z,9.50
2018-08-03T20:30:20.621Z,8.75
2018-08-03T20:32:50.671Z,9.00
2018-08-03T20:35:18.853Z,8.60
2018-08-03T20:37:46.783Z,8.58
2018-08-03T20:40:14.601Z,8.35
2018-08-03T20:42:42.427Z,8.53
2018-08-03T20:45:10.347Z,8.68
2018-08-03T20:47:38.348Z,8.10
2018-08-03T20:50:06.193Z,8.65
2018-08-03T20:52:34.125Z,8.68
2018-08-03T20:55:02.085Z,7.75
2018-08-03T20:57:29.936Z,8.10
2018-08-03T20:59:57.783Z,7.62
2018-08-03T21:02:25.615Z,8.30
2018-08-03T21:04:53.482Z,7.78
2018-08-03T21:07:21.356Z,7.62
2018-08-03T21:09:49.310Z,8.15
2018-08-03T21:12:17.198Z,7.75
2018-08-03T21:14:45.083Z,7.47
2018-08-03T21:17:12.968Z,7.80
2018-08-03T21:19:40.873Z,8.25
2018-08-03T21:22:08.825Z,7.92
2018-08-03T21:24:36.657Z,7.70
2018-08-03T21:27:04.875Z,8.00
2018-08-03T21:29:39.257Z,7.65
2018-08-03T21:32:07.216Z,8.50
2018-08-03T21:41:00.359Z,7.83
2018-08-03T21:43:28.201Z,8.98
2018-08-03T21:46:08.762Z,8.63
2018-08-03T21:48:36.666Z,7.75
2018-08-03T21:51:04.671Z,7.50
2018-08-03T21:53:35.849Z,8.30
2018-08-03T21:56:03.695Z,8.05
2018-08-03T21:58:31.568Z,8.05
2018-08-03T22:00:59.388Z,8.58
2018-08-03T22:03:27.291Z,8.08
2018-08-03T22:05:55.166Z,8.05
2018-08-03T22:17:27.805Z,7.85
2018-08-03T22:19:55.921Z,8.45
2018-08-03T22:22:23.825Z,7.60
2018-08-03T22:24:52.410Z,8.30
2018-08-03T22:27:20.313Z,7.20
2018-08-03T22:29:48.219Z,7.37
2018-08-03T22:32:16.047Z,7.28
2018-08-03T22:34:43.777Z,7.45
2018-08-03T22:37:11.610Z,7.22
2018-08-03T22:39:39.490Z,7.20
2018-08-03T22:42:07.370Z,7.47
2018-08-03T22:44:35.212Z,7.22
2018-08-03T22:47:03.107Z,6.95
2018-08-03T22:49:30.990Z,6.97
2018-08-03T22:51:58.890Z,7.17
2018-08-03T22:54:26.706Z,6.70
2018-08-03T22:56:54.610Z,7.10
2018-08-03T22:59:22.519Z,6.85
2018-08-03T23:01:50.335Z,6.85
2018-08-03T23:04:18.104Z,7.20
2018-08-03T23:06:45.918Z,6.95
2018-08-03T23:09:13.844Z,6.60
2018-08-03T23:11:41.825Z,7.10
2018-08-03T23:14:09.725Z,7.33
2018-08-03T23:16:37.622Z,6.22
2018-08-03T23:19:05.514Z,6.50
2018-08-03T23:21:33.325Z,6.70
2018-08-03T23:24:01.156Z,7.28
2018-08-03T23:26:29.086Z,7.05
2018-08-03T23:28:56.952Z,6.25
2018-08-03T23:31:24.961Z,6.70
2018-08-03T23:33:52.826Z,6.12
2018-08-03T23:36:20.730Z,6.50
2018-08-03T23:38:48.599Z,5.90
2018-08-03T23:41:16.502Z,6.03
2018-08-03T23:43:44.359Z,6.42
2018-08-03T23:46:13.040Z,6.08
2018-08-03T23:48:40.907Z,6.20
2018-08-03T23:51:08.751Z,5.78
2018-08-03T23:53:36.704Z,6.08
2018-08-03T23:56:04.535Z,5.58
2018-08-03T23:58:32.495Z,6.10
